Time;durP1;ratioP1;P1;durP2;ratioP2;P2;SDS_P1;SDS_P2;PMS_P1;PMS_P2;Temp;Humidity;BMP_temperature;BMP_pressure;BME280_temperature;BME280_humidity;BME280_pressure;Samples;Min_cycle;Max_cycle;Signal;HPM_P1;HPM_P2
2023/09/09 00:00:59;;;;;;;;;12.40;12.40;;;;;21.39;38.24;99634.34;5088206;28;8844;-73
2023/09/09 00:03:35;;;;;;;;;16.80;16.20;;;;;21.31;38.29;99631.31;5088290;28;8952;-72
2023/09/09 00:06:10;;;;;;;;;16.40;16.40;;;;;21.37;38.05;99639.81;5089384;28;9625;-72
2023/09/09 00:08:39;;;;;;;;;15.00;14.40;;;;;21.23;38.28;99634.47;5091964;28;8886;-72
2023/09/09 00:11:09;;;;;;;;;15.80;14.00;;;;;21.25;38.18;99632.56;5091894;28;9613;-74
2023/09/09 00:13:38;;;;;;;;;14.40;13.60;;;;;21.27;38.42;99633.31;5092038;28;8875;-73
2023/09/09 00:16:09;;;;;;;;;18.40;17.40;;;;;21.22;38.38;99630.97;5082111;28;8829;-72
2023/09/09 00:18:38;;;;;;;;;15.00;14.40;;;;;21.14;38.49;99635.91;5128097;27;8863;-73
2023/09/09 00:21:07;;;;;;;;;13.80;13.80;;;;;21.14;39.00;99633.25;5112191;28;8873;-74
2023/09/09 00:23:37;;;;;;;;;15.60;15.60;;;;;21.22;38.63;99630.97;5111918;28;8861;-74
2023/09/09 00:26:06;;;;;;;;;16.20;15.40;;;;;21.22;38.57;99641.66;5112272;28;8849;-72
2023/09/09 00:28:35;;;;;;;;;16.60;16.60;;;;;21.22;38.75;99638.13;5110963;28;8852;-73
2023/09/09 00:31:04;;;;;;;;;17.60;14.80;;;;;21.17;38.67;99645.56;5126138;27;8852;-73
2023/09/09 00:33:33;;;;;;;;;15.80;15.00;;;;;21.16;38.85;99635.81;5127820;27;8856;-73
2023/09/09 00:36:03;;;;;;;;;13.60;13.60;;;;;21.16;39.06;99643.84;5111994;28;8837;-74
2023/09/09 00:38:32;;;;;;;;;16.20;16.20;;;;;21.10;38.79;99637.06;5112002;28;8857;-73
2023/09/09 00:41:13;;;;;;;;;14.40;14.00;;;;;21.19;38.66;99628.47;5110433;28;8914;-73
2023/09/09 00:43:44;;;;;;;;;14.00;14.00;;;;;21.12;38.59;99631.63;5026961;28;9096;-72
2023/09/09 00:46:16;;;;;;;;;16.80;16.20;;;;;21.17;38.50;99632.22;5110509;28;8918;-73
2023/09/09 00:48:45;;;;;;;;;16.60;16.60;;;;;21.19;38.64;99641.00;5110086;27;9606;-73
2023/09/09 00:51:14;;;;;;;;;15.20;15.20;;;;;21.17;38.82;99630.38;5106630;28;8848;-72
2023/09/09 00:53:43;;;;;;;;;13.80;13.20;;;;;21.18;38.43;99632.13;5091149;28;9542;-74
2023/09/09 00:56:13;;;;;;;;;14.60;14.60;;;;;21.13;38.77;99630.69;5072265;28;8848;-74
2023/09/09 00:58:42;;;;;;;;;14.00;14.00;;;;;21.06;38.98;99630.22;5090841;28;8939;-75
2023/09/09 01:01:11;;;;;;;;;14.60;13.60;;;;;21.05;39.23;99626.69;5089668;28;8854;-72
2023/09/09 01:03:40;;;;;;;;;14.00;13.00;;;;;20.95;39.27;99632.69;5090673;28;8932;-74
2023/09/09 01:06:10;;;;;;;;;15.40;15.00;;;;;20.97;39.29;99636.13;5106106;28;8836;-74
2023/09/09 01:08:38;;;;;;;;;17.20;16.80;;;;;20.97;39.26;99630.78;5038489;28;9703;-73
2023/09/09 01:11:08;;;;;;;;;17.00;17.00;;;;;20.92;39.86;99635.56;5090471;28;9566;-72
2023/09/09 01:13:37;;;;;;;;;16.00;15.00;;;;;20.88;39.74;99646.41;5106163;28;8847;-73
2023/09/09 01:16:09;;;;;;;;;17.80;17.00;;;;;20.82;39.74;99632.56;5091058;28;10001;-74
2023/09/09 01:18:37;;;;;;;;;17.40;16.20;;;;;20.86;39.87;99628.78;5066669;28;8856;-73
2023/09/09 01:21:09;;;;;;;;;16.40;15.80;;;;;20.80;40.09;99632.69;5067534;28;8887;-73
2023/09/09 01:23:39;;;;;;;;;17.80;16.80;;;;;20.73;40.17;99634.03;5085450;28;8845;-74
2023/09/09 01:26:09;;;;;;;;;15.80;15.60;;;;;20.72;39.94;99634.13;5087806;28;9650;-73
2023/09/09 01:28:38;;;;;;;;;14.60;12.80;;;;;20.64;40.55;99634.59;5054352;28;9599;-74
2023/09/09 01:31:07;;;;;;;;;16.80;16.80;;;;;20.63;40.43;99631.06;5087821;28;8837;-73
2023/09/09 01:33:36;;;;;;;;;18.00;15.40;;;;;20.54;40.89;99634.31;5070453;28;8937;-73
2023/09/09 01:36:06;;;;;;;;;16.00;15.00;;;;;20.49;40.71;99633.72;5054379;28;8834;-73
2023/09/09 01:38:35;;;;;;;;;18.20;17.00;;;;;20.44;40.82;99636.69;5037897;28;8900;-75
2023/09/09 01:41:06;;;;;;;;;15.40;12.40;;;;;20.49;40.69;99631.88;5056353;28;8832;-72
2023/09/09 01:43:36;;;;;;;;;17.20;16.00;;;;;20.35;41.10;99625.66;5070574;28;8854;-72
2023/09/09 01:46:05;;;;;;;;;12.60;12.60;;;;;20.31;41.41;99627.66;5071088;28;8842;-74
2023/09/09 01:48:34;;;;;;;;;16.00;16.00;;;;;20.18;41.53;99627.53;5087637;28;8872;-72
2023/09/09 01:51:05;;;;;;;;;13.00;13.00;;;;;20.20;41.65;99633.63;5108893;28;8937;-73
2023/09/09 01:53:34;;;;;;;;;15.80;15.00;;;;;20.18;41.67;99634.66;5109256;28;8856;-73
2023/09/09 01:56:04;;;;;;;;;14.00;14.00;;;;;20.01;42.01;99633.00;5074515;28;8884;-74
2023/09/09 01:58:33;;;;;;;;;17.20;16.60;;;;;20.03;42.13;99639.97;5087270;28;8912;-74
2023/09/09 02:01:03;;;;;;;;;23.00;18.40;;;;;19.98;42.06;99638.53;5088595;28;9003;-76
2023/09/09 02:03:32;;;;;;;;;18.80;16.80;;;;;19.99;41.92;99638.44;5088670;28;8986;-73
2023/09/09 02:06:01;;;;;;;;;15.60;13.80;;;;;19.92;42.41;99638.88;5037859;28;8902;-73
2023/09/09 02:08:29;;;;;;;;;19.00;18.00;;;;;19.93;42.47;99636.09;5053746;28;8860;-74
2023/09/09 02:10:58;;;;;;;;;18.00;18.00;;;;;19.99;42.16;99634.88;5088263;28;8949;-75
2023/09/09 02:13:29;;;;;;;;;18.20;16.40;;;;;19.96;42.38;99633.28;5089633;28;8867;-75
2023/09/09 02:16:04;;;;;;;;;17.20;16.00;;;;;20.03;42.13;99628.44;5087325;28;8845;-73
2023/09/09 02:18:33;;;;;;;;;15.40;15.40;;;;;20.01;41.98;99636.53;5125685;27;8853;-74
2023/09/09 02:21:02;;;;;;;;;19.20;18.20;;;;;20.00;42.29;99637.47;5108385;28;8838;-74
2023/09/09 02:23:31;;;;;;;;;15.60;15.60;;;;;19.94;42.40;99639.66;5057288;28;8832;-73
2023/09/09 02:26:00;;;;;;;;;18.00;16.40;;;;;19.89;42.24;99630.09;5088063;28;8848;-72
2023/09/09 02:28:31;;;;;;;;;17.20;16.60;;;;;19.91;42.42;99632.66;5087678;28;9628;-73
2023/09/09 02:31:00;;;;;;;;;17.20;16.40;;;;;19.86;42.43;99637.44;5088380;28;8855;-73
2023/09/09 02:33:30;;;;;;;;;15.80;15.00;;;;;19.83;42.50;99634.94;5088325;28;8840;-74
2023/09/09 02:36:00;;;;;;;;;17.80;16.00;;;;;19.68;43.08;99634.88;5089329;28;8847;-73
2023/09/09 02:38:29;;;;;;;;;17.80;17.80;;;;;19.60;43.35;99641.59;5104762;28;8875;-73
2023/09/09 02:40:58;;;;;;;;;17.80;17.40;;;;;19.66;43.20;99626.09;5089256;28;8848;-73
2023/09/09 02:43:27;;;;;;;;;16.20;16.20;;;;;19.56;43.50;99634.72;5104603;28;8843;-73
2023/09/09 02:45:57;;;;;;;;;16.80;15.60;;;;;19.50;43.77;99631.44;5104958;28;8840;-72
2023/09/09 02:48:26;;;;;;;;;18.60;17.80;;;;;19.45;43.69;99633.47;5103724;27;8844;-75
2023/09/09 02:50:55;;;;;;;;;16.80;16.80;;;;;19.52;43.61;99631.38;5055373;28;8844;-73
2023/09/09 02:53:24;;;;;;;;;21.20;17.40;;;;;19.44;43.79;99629.13;5107536;28;8952;-75
2023/09/09 02:55:53;;;;;;;;;15.80;15.20;;;;;19.45;43.74;99632.63;5109063;28;8937;-74
2023/09/09 02:58:22;;;;;;;;;18.40;16.60;;;;;19.49;43.47;99634.16;5108857;28;9019;-74
2023/09/09 03:01:05;;;;;;;;;16.40;16.40;;;;;19.51;43.69;99637.59;5107804;28;8833;-73
2023/09/09 03:03:34;;;;;;;;;20.20;18.40;;;;;19.44;43.82;99629.13;5086510;28;8859;-73
2023/09/09 03:06:05;;;;;;;;;16.40;16.40;;;;;19.43;43.87;99635.38;5103941;28;8863;-73
2023/09/09 03:08:34;;;;;;;;;22.60;21.20;;;;;19.44;43.81;99629.13;5104142;28;8847;-73
2023/09/09 03:11:03;;;;;;;;;20.40;18.20;;;;;19.40;43.98;99632.03;5104195;28;8855;-75
2023/09/09 03:13:32;;;;;;;;;18.00;18.00;;;;;19.40;43.95;99624.88;5088419;28;8930;-75
2023/09/09 03:16:01;;;;;;;;;21.40;19.20;;;;;19.41;43.76;99629.28;5087289;28;8862;-75
2023/09/09 03:18:32;;;;;;;;;22.00;20.00;;;;;19.40;44.20;99629.34;5105858;28;9605;-74
2023/09/09 03:21:02;;;;;;;;;21.80;18.00;;;;;19.39;43.92;99627.66;5104512;28;8847;-74
2023/09/09 03:23:30;;;;;;;;;23.80;23.20;;;;;19.41;44.01;99628.44;5106145;28;8828;-73
2023/09/09 03:26:00;;;;;;;;;42.25;36.75;;;;;19.37;44.24;99627.75;5089628;28;8870;-73
2023/09/09 03:28:29;;;;;;;;;33.50;29.50;;;;;19.35;44.12;99626.09;5102198;28;8864;-74
2023/09/09 03:31:00;;;;;;;;;26.60;23.00;;;;;19.29;44.25;99620.19;5106143;28;9609;-75
2023/09/09 03:33:32;;;;;;;;;18.80;18.80;;;;;19.28;44.05;99631.75;5106034;28;8835;-74
2023/09/09 03:36:01;;;;;;;;;19.80;18.60;;;;;19.27;44.16;99630.06;5072532;28;8864;-75
2023/09/09 03:38:29;;;;;;;;;18.40;17.80;;;;;19.24;44.12;99624.03;5119469;27;8952;-72
2023/09/09 03:40:58;;;;;;;;;20.00;18.40;;;;;19.24;44.23;99624.03;5092614;27;8949;-74
2023/09/09 03:43:27;;;;;;;;;20.80;19.00;;;;;19.17;44.17;99631.50;5077994;27;8970;-74
2023/09/09 03:45:57;;;;;;;;;16.80;16.00;;;;;19.19;44.13;99634.94;5076040;27;8900;-74
2023/09/09 03:48:26;;;;;;;;;19.60;18.60;;;;;19.15;43.87;99627.22;5109263;27;8845;-72
2023/09/09 03:51:00;;;;;;;;;49.25;41.75;;;;;19.25;43.82;99623.97;5092412;27;8876;-74
2023/09/09 03:53:29;;;;;;;;;26.20;25.00;;;;;19.15;44.15;99632.53;5140431;27;8879;-73
2023/09/09 03:56:00;;;;;;;;;22.40;20.40;;;;;19.22;43.79;99628.59;5088427;28;8855;-74
2023/09/09 03:58:29;;;;;;;;;22.00;20.60;;;;;19.19;43.75;99634.09;5069372;28;8852;-73
2023/09/09 04:01:06;;;;;;;;;18.00;17.60;;;;;19.16;43.87;99631.59;5103447;28;8840;-74
2023/09/09 04:03:36;;;;;;;;;20.80;17.40;;;;;19.03;43.71;99637.59;5086498;28;8851;-74
2023/09/09 04:06:12;;;;;;;;;19.80;18.80;;;;;19.01;43.93;99639.50;5069691;28;8828;-73
2023/09/09 04:08:42;;;;;;;;;19.80;19.00;;;;;19.00;43.74;99635.09;5070291;28;8883;-74
2023/09/09 04:11:13;;;;;;;;;46.00;36.25;;;;;18.98;43.41;99636.13;5102555;27;8823;-76
2023/09/09 04:13:42;;;;;;;;;13.80;11.00;;;;;19.01;43.21;99642.16;5086398;28;8861;-73
2023/09/09 04:16:13;;;;;;;;;17.00;15.20;;;;;19.03;43.00;99632.28;5086720;28;8845;-74
2023/09/09 04:18:42;;;;;;;;;19.20;18.00;;;;;19.02;42.70;99638.53;5068646;28;8946;-73
2023/09/09 04:21:20;;;;;;;;;20.40;18.20;;;;;19.01;42.86;99641.31;5069349;28;8995;-74
2023/09/09 04:23:49;;;;;;;;;18.80;16.80;;;;;18.97;42.95;99637.06;5103449;28;8859;-73
2023/09/09 04:26:18;;;;;;;;;21.00;20.00;;;;;18.82;43.53;99642.28;5103531;28;8912;-75
2023/09/09 04:28:47;;;;;;;;;27.50;24.00;;;;;18.86;43.46;99646.50;5102772;27;8855;-72
2023/09/09 04:31:16;;;;;;;;;22.80;20.20;;;;;18.90;43.23;99636.56;5052742;28;8868;-74
2023/09/09 04:33:45;;;;;;;;;21.20;19.00;;;;;18.78;43.47;99639.81;5086344;28;8868;-74
2023/09/09 04:36:14;;;;;;;;;32.75;30.50;;;;;18.80;43.42;99640.63;5086530;28;8856;-72
2023/09/09 04:38:44;;;;;;;;;23.20;21.00;;;;;18.85;43.18;99643.91;5087513;28;8852;-74
2023/09/09 04:41:13;;;;;;;;;22.20;20.00;;;;;18.90;43.02;99642.72;5086016;28;8840;-75
2023/09/09 04:43:43;;;;;;;;;24.00;22.80;;;;;18.90;42.88;99645.41;5067582;28;9596;-76
2023/09/09 04:46:13;;;;;;;;;21.60;19.00;;;;;18.92;42.76;99642.66;5053387;28;8964;-75
2023/09/09 04:48:42;;;;;;;;;18.80;18.00;;;;;18.91;42.48;99647.13;5086651;28;8867;-74
2023/09/09 04:51:11;;;;;;;;;19.40;19.40;;;;;18.87;42.25;99645.56;5087894;28;8864;-73
2023/09/09 04:53:40;;;;;;;;;18.00;16.80;;;;;18.85;42.21;99647.44;5109598;28;8933;-73
2023/09/09 04:56:11;;;;;;;;;16.20;16.20;;;;;18.72;42.05;99635.69;5103471;28;8840;-75
2023/09/09 04:58:39;;;;;;;;;18.00;16.60;;;;;18.67;42.04;99643.94;5105255;28;8837;-73
2023/09/09 05:01:09;;;;;;;;;18.40;17.00;;;;;18.69;41.83;99642.06;5094078;28;8860;-73
2023/09/09 05:03:38;;;;;;;;;15.80;15.80;;;;;18.75;41.56;99641.72;5103333;27;8979;-74
2023/09/09 05:06:07;;;;;;;;;14.00;14.00;;;;;18.81;41.04;99647.69;5108084;28;8970;-72
2023/09/09 05:08:37;;;;;;;;;14.00;13.40;;;;;18.83;40.72;99641.34;5101956;27;10126;-69
2023/09/09 05:11:07;;;;;;;;;14.00;12.40;;;;;18.93;40.38;99644.34;5108092;28;8946;-70
2023/09/09 05:13:37;;;;;;;;;13.60;12.60;;;;;18.88;40.08;99639.28;5107915;28;8836;-69
2023/09/09 05:16:06;;;;;;;;;11.20;11.20;;;;;18.94;39.70;99636.28;5107064;27;8897;-70
2023/09/09 05:18:35;;;;;;;;;11.20;11.20;;;;;18.93;39.37;99641.69;5100611;28;8860;-70
2023/09/09 05:21:04;;;;;;;;;13.00;11.80;;;;;19.00;39.13;99637.75;5071511;28;8881;-70
2023/09/09 05:23:35;;;;;;;;;11.60;11.00;;;;;19.09;38.93;99637.25;5040952;28;8853;-69
2023/09/09 05:26:05;;;;;;;;;15.20;13.60;;;;;19.16;38.67;99639.56;5019518;28;8934;-71
2023/09/09 05:28:33;;;;;;;;;13.00;12.00;;;;;19.18;38.37;99640.34;5065205;28;8880;-70
2023/09/09 05:31:07;;;;;;;;;11.00;10.60;;;;;19.23;38.11;99636.47;5048150;28;8860;-69
2023/09/09 05:33:36;;;;;;;;;11.80;11.00;;;;;19.36;37.90;99641.16;5067426;28;8868;-70
2023/09/09 05:36:06;;;;;;;;;11.60;10.60;;;;;19.39;37.80;99646.31;5065334;28;8853;-69
2023/09/09 05:38:36;;;;;;;;;13.80;13.00;;;;;19.41;37.47;99639.09;5067244;28;8830;-68
2023/09/09 05:41:06;;;;;;;;;9.80;9.80;;;;;19.47;37.55;99644.91;5065976;28;8934;-68
2023/09/09 05:43:35;;;;;;;;;11.40;10.80;;;;;19.53;37.21;99646.41;5082332;28;8855;-69
2023/09/09 05:46:05;;;;;;;;;11.40;10.40;;;;;19.64;37.00;99648.47;5018319;28;8875;-69
2023/09/09 05:48:36;;;;;;;;;10.00;10.00;;;;;19.69;37.03;99649.09;5048503;28;8863;-70
2023/09/09 05:51:06;;;;;;;;;11.40;11.20;;;;;19.71;36.85;99634.69;5062820;28;8863;-70
2023/09/09 05:53:35;;;;;;;;;12.00;12.00;;;;;19.87;36.33;99649.81;5048544;28;9607;-70
2023/09/09 05:56:04;;;;;;;;;10.00;10.00;;;;;19.99;36.22;99643.78;5050273;28;8851;-70
2023/09/09 05:58:35;;;;;;;;;10.00;10.00;;;;;20.13;36.03;99647.44;5047965;28;8871;-68
2023/09/09 06:01:04;;;;;;;;;8.20;7.80;;;;;20.27;35.82;99652.81;5051290;28;8985;-68
2023/09/09 06:03:35;;;;;;;;;10.60;10.60;;;;;20.44;35.92;99654.47;5041701;28;8899;-70
2023/09/09 06:06:06;;;;;;;;;11.80;11.20;;;;;20.57;35.42;99651.94;5049946;28;8863;-71
2023/09/09 06:08:35;;;;;;;;;11.00;11.00;;;;;20.61;35.81;99651.63;5065024;28;8851;-68
2023/09/09 06:11:05;;;;;;;;;12.00;11.40;;;;;20.68;35.32;99661.00;5076493;28;8846;-76
2023/09/09 06:13:33;;;;;;;;;10.00;10.00;;;;;20.85;35.35;99656.44;5066049;28;8905;-76
2023/09/09 06:16:03;;;;;;;;;12.60;11.00;;;;;21.04;34.88;99659.69;5052999;28;8836;-74
2023/09/09 06:18:32;;;;;;;;;9.40;9.00;;;;;21.19;34.77;99662.38;5050865;28;8919;-76
2023/09/09 06:21:01;;;;;;;;;9.60;9.60;;;;;21.36;34.68;99664.81;5065437;27;8843;-78
2023/09/09 06:23:32;;;;;;;;;11.60;11.00;;;;;21.41;34.37;99662.72;5091580;27;9007;-78
2023/09/09 06:26:01;;;;;;;;;8.60;8.00;;;;;21.65;33.65;99662.09;5097072;28;8840;-77
2023/09/09 06:28:30;;;;;;;;;13.20;11.20;;;;;21.86;33.46;99664.31;5107560;27;8813;-77
2023/09/09 06:30:59;;;;;;;;;10.60;9.20;;;;;21.91;33.34;99662.22;5076743;27;8845;-77
2023/09/09 06:33:27;;;;;;;;;9.20;8.80;;;;;22.20;33.04;99676.31;5109517;27;8856;-76
2023/09/09 06:35:56;;;;;;;;;11.20;11.20;;;;;22.25;32.41;99674.22;5086607;28;8839;-76
2023/09/09 06:38:26;;;;;;;;;13.00;13.00;;;;;22.31;32.26;99672.94;5105220;27;8952;-75
2023/09/09 06:40:56;;;;;;;;;14.20;12.00;;;;;22.49;31.95;99671.69;5076715;28;8871;-76
2023/09/09 06:43:25;;;;;;;;;10.40;9.40;;;;;22.65;32.01;99679.50;5123517;27;8866;-75
2023/09/09 06:45:54;;;;;;;;;11.00;11.00;;;;;22.85;31.79;99669.25;5120872;27;8874;-75
2023/09/09 06:48:23;;;;;;;;;5.20;4.00;;;;;23.03;31.74;99673.31;5113828;27;8857;-75
2023/09/09 06:50:52;;;;;;;;;12.80;12.00;;;;;23.18;31.53;99672.22;5077134;28;8851;-78
2023/09/09 06:53:21;;;;;;;;;13.20;13.20;;;;;23.38;31.73;99678.81;5069280;28;8906;-76
2023/09/09 06:55:52;;;;;;;;;13.40;11.80;;;;;23.64;31.32;99677.91;5091660;28;8990;-79
2023/09/09 06:58:22;;;;;;;;;16.00;14.60;;;;;23.73;31.75;99675.44;5088601;28;8870;-78
2023/09/09 07:00:51;;;;;;;;;19.00;19.00;;;;;23.93;31.58;99681.97;5088467;28;8887;-79
2023/09/09 07:03:21;;;;;;;;;22.00;19.60;;;;;24.15;31.08;99683.09;5070888;28;8849;-79
2023/09/09 07:05:50;;;;;;;;;24.40;21.20;;;;;24.29;31.33;99685.56;5109455;28;8949;-78
2023/09/09 07:08:19;;;;;;;;;26.60;26.00;;;;;24.47;30.63;99686.00;5109526;28;8845;-77
2023/09/09 07:10:51;;;;;;;;;20.60;19.60;;;;;24.54;30.27;99684.53;5086290;28;8883;-77
2023/09/09 07:13:21;;;;;;;;;19.00;16.60;;;;;24.51;30.67;99690.16;5088951;28;8844;-80
2023/09/09 07:15:53;;;;;;;;;18.60;18.00;;;;;24.71;30.34;99691.28;5103385;28;8828;-78
2023/09/09 07:18:22;;;;;;;;;15.00;13.00;;;;;24.81;29.52;99701.34;5107243;28;8908;-78
2023/09/09 07:20:52;;;;;;;;;15.80;15.80;;;;;24.89;29.54;99698.94;5108241;28;8921;-79
2023/09/09 07:23:20;;;;;;;;;13.20;12.20;;;;;25.00;29.62;99703.44;5103935;28;8832;-78
2023/09/09 07:25:49;;;;;;;;;14.00;11.40;;;;;25.04;29.76;99702.22;5088700;28;8851;-77
2023/09/09 07:28:18;;;;;;;;;12.40;12.20;;;;;25.05;28.91;99696.72;5087764;28;9698;-77
2023/09/09 07:30:47;;;;;;;;;9.80;9.80;;;;;25.12;28.87;99697.97;5091621;28;8860;-79
2023/09/09 07:33:18;;;;;;;;;10.00;10.00;;;;;25.22;28.62;99699.91;5093834;28;8879;-78
2023/09/09 07:35:50;;;;;;;;;12.00;11.80;;;;;25.15;28.95;99694.16;5090656;28;8844;-77
2023/09/09 07:38:19;;;;;;;;;10.20;10.20;;;;;25.29;28.83;99698.44;5088755;28;8963;-78
2023/09/09 07:40:48;;;;;;;;;8.80;8.80;;;;;25.26;28.82;99696.84;5088220;28;8867;-77
2023/09/09 07:43:18;;;;;;;;;10.20;10.20;;;;;25.38;28.72;99696.88;5093173;28;8983;-78
2023/09/09 07:45:48;;;;;;;;;10.80;9.40;;;;;25.49;28.76;99696.84;5101734;28;8861;-79
2023/09/09 07:48:18;;;;;;;;;9.80;8.80;;;;;25.58;28.63;99695.25;5088454;28;9979;-78
2023/09/09 07:50:52;;;;;;;;;12.00;11.40;;;;;25.62;27.74;99694.03;5088525;28;8849;-77
2023/09/09 07:53:21;;;;;;;;;10.80;10.80;;;;;25.60;27.87;99702.22;5088087;28;8841;-83
2023/09/09 07:55:51;;;;;;;;;10.80;10.40;;;;;25.64;27.48;99697.44;5088092;28;8853;-79
2023/09/09 07:58:20;;;;;;;;;12.00;11.40;;;;;25.58;27.90;99701.50;5088388;28;9625;-77
2023/09/09 08:00:58;;;;;;;;;11.00;11.00;;;;;25.78;27.10;99707.09;5086968;28;8844;-78
2023/09/09 08:03:29;;;;;;;;;10.40;9.00;;;;;25.80;27.29;99711.34;5086552;28;8859;-81
2023/09/09 08:06:02;;;;;;;;;9.60;8.80;;;;;25.86;27.33;99712.69;5087731;28;8828;-77
2023/09/09 08:08:31;;;;;;;;;9.20;9.20;;;;;25.94;27.16;99709.41;5103703;28;8832;-78
2023/09/09 08:11:00;;;;;;;;;9.40;9.20;;;;;26.00;26.88;99708.88;5090932;28;8945;-79
2023/09/09 08:13:28;;;;;;;;;14.00;14.00;;;;;26.12;26.74;99715.94;5098332;28;8851;-79
2023/09/09 08:15:58;;;;;;;;;9.40;9.20;;;;;26.21;26.75;99722.38;5092565;28;8857;-79
2023/09/09 08:18:29;;;;;;;;;11.60;9.80;;;;;26.30;25.62;99710.84;5099050;28;8911;-76
2023/09/09 08:20:58;;;;;;;;;9.40;9.40;;;;;26.31;25.34;99717.94;5084886;28;9014;-78
2023/09/09 08:23:26;;;;;;;;;9.40;9.40;;;;;26.34;25.06;99714.13;5087158;28;8843;-71
2023/09/09 08:25:56;;;;;;;;;12.80;11.80;;;;;26.46;25.43;99713.09;5069783;28;8876;-73
2023/09/09 08:28:25;;;;;;;;;10.60;10.00;;;;;26.48;25.59;99717.41;5097484;28;8856;-72
2023/09/09 08:30:58;;;;;;;;;11.00;11.00;;;;;26.67;25.90;99719.38;5095966;27;8868;-70
2023/09/09 08:33:28;;;;;;;;;11.20;11.20;;;;;26.70;26.18;99710.16;5089372;27;8855;-71
2023/09/09 08:35:59;;;;;;;;;10.20;9.80;;;;;26.60;26.41;99712.78;5091132;28;8976;-71
2023/09/09 08:38:27;;;;;;;;;8.60;8.60;;;;;26.75;25.75;99712.47;5090640;27;8852;-70
2023/09/09 08:41:04;;;;;;;;;8.40;7.40;;;;;26.94;26.07;99712.56;5103601;27;8863;-73
2023/09/09 08:43:46;;;;;;;;;12.20;12.20;;;;;27.08;25.78;99711.41;5100171;27;8840;-72
2023/09/09 08:46:17;;;;;;;;;10.60;9.20;;;;;27.14;25.47;99715.41;5100234;27;8823;-72
2023/09/09 08:48:50;;;;;;;;;10.20;10.20;;;;;26.93;25.34;99710.88;5066802;27;8853;-72
2023/09/09 08:51:25;;;;;;;;;12.80;12.80;;;;;26.94;25.86;99712.56;5089735;28;8952;-73
2023/09/09 08:53:58;;;;;;;;;16.60;16.20;;;;;27.07;26.76;99706.97;5090680;27;8887;-73
2023/09/09 08:56:27;;;;;;;;;22.00;22.00;;;;;27.00;27.11;99703.91;5090322;27;8856;-73
2023/09/09 08:58:57;;;;;;;;;15.40;15.40;;;;;27.06;27.28;99707.97;5090422;28;8912;-74
2023/09/09 09:01:28;;;;;;;;;15.00;14.60;;;;;27.10;27.25;99708.53;5090792;28;8923;-73
2023/09/09 09:03:59;;;;;;;;;15.60;15.60;;;;;27.20;27.42;99709.47;5090820;27;8984;-74
2023/09/09 09:06:30;;;;;;;;;10.60;10.20;;;;;27.21;25.06;99717.44;5090374;28;8882;-74
2023/09/09 09:08:59;;;;;;;;;9.80;9.00;;;;;27.15;24.73;99711.69;5089389;27;8943;-75
2023/09/09 09:11:28;;;;;;;;;11.80;11.40;;;;;27.04;25.31;99707.25;5108426;28;8849;-73
2023/09/09 09:14:08;;;;;;;;;10.20;9.00;;;;;26.55;25.80;99709.66;5104500;28;8840;-72
2023/09/09 09:16:39;;;;;;;;;13.80;12.40;;;;;26.66;26.17;99706.00;5090112;28;8944;-73
2023/09/09 09:19:17;;;;;;;;;9.60;9.60;;;;;26.87;26.52;99705.97;5059962;28;9758;-72
2023/09/09 09:21:46;;;;;;;;;10.20;10.20;;;;;26.93;26.31;99710.88;5091568;28;8847;-75
2023/09/09 09:24:15;;;;;;;;;9.00;9.00;;;;;27.01;25.72;99712.91;5074476;27;8970;-68
2023/09/09 09:26:44;;;;;;;;;9.80;9.80;;;;;27.13;25.41;99717.22;5090291;28;8848;-67
2023/09/09 09:29:13;;;;;;;;;10.40;10.40;;;;;27.22;25.32;99719.13;5089852;28;8991;-70
2023/09/09 09:31:42;;;;;;;;;10.80;10.80;;;;;27.36;25.34;99707.09;5088632;28;8928;-70
2023/09/09 09:34:14;;;;;;;;;10.60;10.60;;;;;27.35;24.94;99708.09;5089402;28;8917;-68
2023/09/09 09:36:43;;;;;;;;;9.80;9.80;;;;;27.31;24.89;99713.88;5097768;28;8859;-70
2023/09/09 09:39:11;;;;;;;;;11.80;10.40;;;;;27.41;24.40;99704.84;5097871;28;8899;-69
2023/09/09 09:41:41;;;;;;;;;9.60;9.60;;;;;27.41;23.79;99698.59;5099213;28;8849;-66
2023/09/09 09:44:18;;;;;;;;;11.00;10.40;;;;;27.48;23.79;99696.19;5088948;28;8886;-69
2023/09/09 09:47:03;;;;;;;;;12.60;12.00;;;;;27.45;24.09;99700.88;5097504;28;9662;-70
2023/09/09 09:49:38;;;;;;;;;9.40;8.60;;;;;27.31;23.47;99700.38;5053667;28;8867;-71
2023/09/09 09:52:08;;;;;;;;;10.40;9.60;;;;;26.99;23.87;99693.28;5054692;28;8954;-70
2023/09/09 09:54:38;;;;;;;;;9.40;9.40;;;;;27.19;23.66;99700.53;5063604;28;9040;-70
2023/09/09 09:57:08;;;;;;;;;9.60;9.40;;;;;27.29;23.53;99694.28;5056177;28;9014;-72
2023/09/09 09:59:38;;;;;;;;;8.40;8.40;;;;;27.35;23.94;99689.19;5047708;28;8869;-72
2023/09/09 10:02:09;;;;;;;;;10.00;9.40;;;;;27.42;24.03;99686.78;5048445;28;8869;-74
2023/09/09 10:04:43;;;;;;;;;10.80;10.80;;;;;27.37;23.67;99684.50;5071253;28;8861;-70
2023/09/09 10:07:16;;;;;;;;;9.40;9.40;;;;;27.32;24.31;99692.16;5020836;28;8860;-69
2023/09/09 10:09:54;;;;;;;;;9.20;9.20;;;;;27.49;23.85;99695.19;5062610;28;8872;-71
2023/09/09 10:12:28;;;;;;;;;10.60;10.60;;;;;27.39;24.19;99679.81;5066126;28;8929;-72
2023/09/09 10:15:13;;;;;;;;;10.00;9.40;;;;;27.39;23.84;99679.81;5051764;28;8878;-71
2023/09/09 10:17:44;;;;;;;;;9.80;9.80;;;;;27.32;23.75;99684.06;5048925;28;8945;-72
2023/09/09 10:20:15;;;;;;;;;7.60;6.80;;;;;27.36;23.99;99673.84;5062290;28;8834;-71
2023/09/09 10:22:45;;;;;;;;;11.40;10.20;;;;;27.49;23.75;99677.16;5057684;28;8872;-72
2023/09/09 10:25:14;;;;;;;;;10.00;9.00;;;;;27.43;23.92;99675.00;5052265;28;10030;-71
2023/09/09 10:27:44;;;;;;;;;10.40;10.40;;;;;27.60;23.81;99671.66;5092629;28;8963;-71
2023/09/09 10:30:13;;;;;;;;;7.60;7.60;;;;;27.64;23.96;99664.13;5107998;28;8926;-70
2023/09/09 10:32:43;;;;;;;;;11.20;10.00;;;;;27.72;23.81;99668.84;5108677;28;8849;-72
2023/09/09 10:35:15;;;;;;;;;10.20;10.20;;;;;27.79;23.49;99667.28;5108833;28;8853;-70
2023/09/09 10:37:47;;;;;;;;;9.00;9.00;;;;;27.91;23.95;99663.47;5108463;28;8832;-71
2023/09/09 10:40:16;;;;;;;;;10.80;10.80;;;;;27.97;23.77;99660.19;5072710;28;8852;-70
2023/09/09 10:42:46;;;;;;;;;9.20;8.60;;;;;27.64;23.80;99666.84;5109635;27;8869;-71
2023/09/09 10:45:28;;;;;;;;;11.80;11.40;;;;;27.93;23.38;99658.78;5088979;27;8889;-71
2023/09/09 10:48:01;;;;;;;;;9.80;9.80;;;;;27.96;23.67;99663.03;5094240;28;8853;-70
2023/09/09 10:50:45;;;;;;;;;12.60;11.80;;;;;28.05;22.87;99664.88;5109455;27;8839;-71
2023/09/09 10:53:16;;;;;;;;;11.80;10.60;;;;;27.91;23.47;99657.19;5103594;27;8863;-71
2023/09/09 10:55:46;;;;;;;;;11.40;11.40;;;;;28.03;23.46;99647.97;5106272;28;8865;-70
2023/09/09 10:58:17;;;;;;;;;11.40;11.20;;;;;28.22;23.32;99649.84;5105073;28;8878;-71
2023/09/09 11:00:47;;;;;;;;;8.80;8.80;;;;;28.32;23.09;99652.50;5109549;27;8884;-71
2023/09/09 11:03:21;;;;;;;;;13.80;13.00;;;;;28.31;22.90;99648.09;5088358;28;9939;-71
2023/09/09 11:06:05;;;;;;;;;19.75;18.25;;;;;28.65;22.89;99639.50;5105613;28;8857;-70
2023/09/09 11:08:37;;;;;;;;;10.80;9.60;;;;;28.68;22.68;99641.94;5087728;28;8895;-71
2023/09/09 11:11:12;;;;;;;;;13.00;12.00;;;;;28.62;22.24;99643.34;5085498;28;8875;-70
2023/09/09 11:13:50;;;;;;;;;10.60;10.60;;;;;28.69;22.99;99636.38;5120604;27;8853;-71
2023/09/09 11:16:27;;;;;;;;;11.20;9.40;;;;;28.83;22.59;99645.03;5096266;28;8861;-71
2023/09/09 11:18:57;;;;;;;;;9.20;9.20;;;;;28.66;22.15;99638.53;5107562;28;8853;-71
2023/09/09 11:21:28;;;;;;;;;9.20;9.20;;;;;28.95;22.91;99636.56;5107659;28;8857;-72
2023/09/09 11:23:58;;;;;;;;;8.00;8.00;;;;;29.04;21.95;99629.38;5106144;28;8872;-71
2023/09/09 11:26:28;;;;;;;;;12.80;12.80;;;;;29.08;21.99;99638.91;5096530;28;8973;-77
2023/09/09 11:28:57;;;;;;;;;12.00;12.00;;;;;29.11;22.22;99632.38;5108657;28;8949;-76
2023/09/09 11:31:26;;;;;;;;;11.00;9.80;;;;;29.03;21.53;99632.25;5099798;28;9003;-77
2023/09/09 11:33:57;;;;;;;;;11.20;11.20;;;;;29.25;21.69;99625.63;5107964;28;8849;-78
2023/09/09 11:36:28;;;;;;;;;11.00;11.00;;;;;29.49;21.30;99623.16;5115603;27;9011;-77
2023/09/09 11:38:59;;;;;;;;;11.60;11.00;;;;;29.40;21.45;99626.78;5074533;28;8849;-76
2023/09/09 11:41:29;;;;;;;;;9.40;9.00;;;;;29.68;21.45;99624.06;5107132;28;8861;-79